sensor_id;sensor_type;location;lat;lon;timestamp;temperature;humidity
31207;DHT22;17834;52.992;8.856;2023-05-16T00:01:07;10.80;99.90
31207;DHT22;17834;52.992;8.856;2023-05-16T00:03:33;10.70;99.90
31207;DHT22;17834;52.992;8.856;2023-05-16T00:05:59;10.70;99.90
31207;DHT22;17834;52.992;8.856;2023-05-16T00:08:27;10.70;99.90
31207;DHT22;17834;52.992;8.856;2023-05-16T00:10:52;10.60;99.90
31207;DHT22;17834;52.992;8.856;2023-05-16T00:13:18;10.60;99.90
31207;DHT22;17834;52.992;8.856;2023-05-16T00:15:49;10.60;99.90
31207;DHT22;17834;52.992;8.856;2023-05-16T00:18:17;10.50;99.90
31207;DHT22;17834;52.992;8.856;2023-05-16T00:20:44;10.50;99.90
31207;DHT22;17834;52.992;8.856;2023-05-16T00:23:09;10.40;99.90
31207;DHT22;17834;52.992;8.856;2023-05-16T00:25:35;10.40;99.90
31207;DHT22;17834;52.992;8.856;2023-05-16T00:28:01;10.40;99.90
31207;DHT22;17834;52.992;8.856;2023-05-16T00:30:27;10.30;99.90
31207;DHT22;17834;52.992;8.856;2023-05-16T00:32:54;10.30;99.90
31207;DHT22;17834;52.992;8.856;2023-05-16T00:35:20;10.30;99.90
31207;DHT22;17834;52.992;8.856;2023-05-16T00:37:45;10.30;99.90
31207;DHT22;17834;52.992;8.856;2023-05-16T00:40:11;10.20;99.90
31207;DHT22;17834;52.992;8.856;2023-05-16T00:42:38;10.20;99.90
31207;DHT22;17834;52.992;8.856;2023-05-16T00:45:04;10.20;99.90
31207;DHT22;17834;52.992;8.856;2023-05-16T00:47:30;10.20;99.90
31207;DHT22;17834;52.992;8.856;2023-05-16T00:49:56;10.20;99.90
31207;DHT22;17834;52.992;8.856;2023-05-16T00:52:22;10.20;99.90
31207;DHT22;17834;52.992;8.856;2023-05-16T00:54:48;10.20;99.90
31207;DHT22;17834;52.992;8.856;2023-05-16T00:57:14;10.20;99.90
31207;DHT22;17834;52.992;8.856;2023-05-16T00:59:40;10.10;99.90
31207;DHT22;17834;52.992;8.856;2023-05-16T01:02:06;10.10;99.90
31207;DHT22;17834;52.992;8.856;2023-05-16T01:04:32;10.10;99.90
31207;DHT22;17834;52.992;8.856;2023-05-16T01:06:58;10.10;99.90
31207;DHT22;17834;52.992;8.856;2023-05-16T01:09:24;10.00;99.90
31207;DHT22;17834;52.992;8.856;2023-05-16T01:14:28;10.10;99.90
31207;DHT22;17834;52.992;8.856;2023-05-16T01:17:28;10.10;99.90
31207;DHT22;17834;52.992;8.856;2023-05-16T01:20:12;10.00;99.90
31207;DHT22;17834;52.992;8.856;2023-05-16T01:25:45;10.10;99.90
31207;DHT22;17834;52.992;8.856;2023-05-16T01:28:15;10.00;99.90
31207;DHT22;17834;52.992;8.856;2023-05-16T01:30:42;10.00;99.90
31207;DHT22;17834;52.992;8.856;2023-05-16T01:33:07;10.00;99.90
31207;DHT22;17834;52.992;8.856;2023-05-16T01:43:36;10.00;99.90
31207;DHT22;17834;52.992;8.856;2023-05-16T01:46:09;10.00;99.90
31207;DHT22;17834;52.992;8.856;2023-05-16T01:49:04;10.00;99.90
31207;DHT22;17834;52.992;8.856;2023-05-16T01:51:30;10.00;99.90
31207;DHT22;17834;52.992;8.856;2023-05-16T01:54:00;10.00;99.90
31207;DHT22;17834;52.992;8.856;2023-05-16T01:56:29;10.00;99.90
31207;DHT22;17834;52.992;8.856;2023-05-16T01:58:57;10.00;99.90
31207;DHT22;17834;52.992;8.856;2023-05-16T02:01:23;10.00;99.90
31207;DHT22;17834;52.992;8.856;2023-05-16T02:03:49;10.00;99.90
31207;DHT22;17834;52.992;8.856;2023-05-16T02:06:15;10.00;99.90
31207;DHT22;17834;52.992;8.856;2023-05-16T02:08:41;10.00;99.90
31207;DHT22;17834;52.992;8.856;2023-05-16T02:11:07;9.90;99.90
31207;DHT22;17834;52.992;8.856;2023-05-16T02:13:32;9.90;99.90
31207;DHT22;17834;52.992;8.856;2023-05-16T02:15:58;9.90;99.90
31207;DHT22;17834;52.992;8.856;2023-05-16T02:18:23;9.90;99.90
31207;DHT22;17834;52.992;8.856;2023-05-16T02:20:50;9.90;99.90
31207;DHT22;17834;52.992;8.856;2023-05-16T02:23:16;9.90;99.90
31207;DHT22;17834;52.992;8.856;2023-05-16T02:25:41;9.80;99.90
31207;DHT22;17834;52.992;8.856;2023-05-16T02:28:07;9.80;99.90
31207;DHT22;17834;52.992;8.856;2023-05-16T02:30:32;9.80;99.90
31207;DHT22;17834;52.992;8.856;2023-05-16T02:32:58;9.90;99.90
31207;DHT22;17834;52.992;8.856;2023-05-16T02:35:24;9.90;99.90
31207;DHT22;17834;52.992;8.856;2023-05-16T02:37:50;9.80;99.90
31207;DHT22;17834;52.992;8.856;2023-05-16T02:40:15;9.80;99.90
31207;DHT22;17834;52.992;8.856;2023-05-16T02:42:41;9.80;99.90
31207;DHT22;17834;52.992;8.856;2023-05-16T02:45:07;9.80;99.90
31207;DHT22;17834;52.992;8.856;2023-05-16T02:47:32;9.80;99.90
31207;DHT22;17834;52.992;8.856;2023-05-16T02:49:58;9.80;99.90
31207;DHT22;17834;52.992;8.856;2023-05-16T02:52:24;9.80;99.90
31207;DHT22;17834;52.992;8.856;2023-05-16T02:54:49;9.70;99.90
31207;DHT22;17834;52.992;8.856;2023-05-16T02:57:15;9.70;99.90
31207;DHT22;17834;52.992;8.856;2023-05-16T02:59:40;9.60;99.90
31207;DHT22;17834;52.992;8.856;2023-05-16T03:02:06;9.50;99.90
31207;DHT22;17834;52.992;8.856;2023-05-16T03:04:31;9.50;99.90
31207;DHT22;17834;52.992;8.856;2023-05-16T03:06:57;9.30;99.90
31207;DHT22;17834;52.992;8.856;2023-05-16T03:09:22;9.20;99.90
31207;DHT22;17834;52.992;8.856;2023-05-16T03:11:48;9.10;99.90
31207;DHT22;17834;52.992;8.856;2023-05-16T03:14:14;8.90;99.90
31207;DHT22;17834;52.992;8.856;2023-05-16T03:16:39;8.80;99.90
31207;DHT22;17834;52.992;8.856;2023-05-16T03:19:07;8.80;99.90
31207;DHT22;17834;52.992;8.856;2023-05-16T03:21:33;8.70;99.90
31207;DHT22;17834;52.992;8.856;2023-05-16T03:23:58;8.60;99.90
31207;DHT22;17834;52.992;8.856;2023-05-16T03:26:24;8.50;99.90
31207;DHT22;17834;52.992;8.856;2023-05-16T03:28:50;8.50;99.90
31207;DHT22;17834;52.992;8.856;2023-05-16T03:31:16;8.50;99.90
31207;DHT22;17834;52.992;8.856;2023-05-16T03:33:42;8.40;99.90
31207;DHT22;17834;52.992;8.856;2023-05-16T03:36:07;8.40;99.90
31207;DHT22;17834;52.992;8.856;2023-05-16T03:38:33;8.40;99.90
31207;DHT22;17834;52.992;8.856;2023-05-16T03:40:59;8.30;99.90
31207;DHT22;17834;52.992;8.856;2023-05-16T03:43:25;8.30;99.90
31207;DHT22;17834;52.992;8.856;2023-05-16T03:45:51;8.20;99.90
31207;DHT22;17834;52.992;8.856;2023-05-16T03:48:17;8.30;99.90
31207;DHT22;17834;52.992;8.856;2023-05-16T03:50:42;8.30;99.90
31207;DHT22;17834;52.992;8.856;2023-05-16T03:53:08;8.20;99.90
31207;DHT22;17834;52.992;8.856;2023-05-16T03:55:34;8.30;99.90
31207;DHT22;17834;52.992;8.856;2023-05-16T03:58:00;8.20;99.90
31207;DHT22;17834;52.992;8.856;2023-05-16T04:00:26;8.20;99.90
31207;DHT22;17834;52.992;8.856;2023-05-16T04:02:51;8.20;99.90
31207;DHT22;17834;52.992;8.856;2023-05-16T04:05:17;8.20;99.90
31207;DHT22;17834;52.992;8.856;2023-05-16T04:07:43;8.30;99.90
31207;DHT22;17834;52.992;8.856;2023-05-16T04:10:09;8.30;99.90
31207;DHT22;17834;52.992;8.856;2023-05-16T04:12:35;8.40;99.90
31207;DHT22;17834;52.992;8.856;2023-05-16T04:15:04;8.50;99.90
31207;DHT22;17834;52.992;8.856;2023-05-16T04:17:31;8.50;99.90
31207;DHT22;17834;52.992;8.856;2023-05-16T04:19:57;8.70;99.90
31207;DHT22;17834;52.992;8.856;2023-05-16T04:22:23;9.00;99.90
31207;DHT22;17834;52.992;8.856;2023-05-16T04:24:48;9.10;99.90
31207;DHT22;17834;52.992;8.856;2023-05-16T04:27:14;9.10;99.90
31207;DHT22;17834;52.992;8.856;2023-05-16T04:29:40;9.20;99.90
31207;DHT22;17834;52.992;8.856;2023-05-16T04:32:06;9.30;99.90
31207;DHT22;17834;52.992;8.856;2023-05-16T04:34:32;9.40;99.90
31207;DHT22;17834;52.992;8.856;2023-05-16T04:36:58;9.50;99.90
31207;DHT22;17834;52.992;8.856;2023-05-16T04:39:24;9.60;99.90
31207;DHT22;17834;52.992;8.856;2023-05-16T04:41:50;9.50;99.90
31207;DHT22;17834;52.992;8.856;2023-05-16T04:44:16;9.50;99.90
31207;DHT22;17834;52.992;8.856;2023-05-16T04:46:41;9.60;99.90
31207;DHT22;17834;52.992;8.856;2023-05-16T04:49:07;9.60;99.90
31207;DHT22;17834;52.992;8.856;2023-05-16T04:51:33;9.70;99.90
31207;DHT22;17834;52.992;8.856;2023-05-16T04:53:59;9.70;99.90
31207;DHT22;17834;52.992;8.856;2023-05-16T04:56:25;9.60;99.90
31207;DHT22;17834;52.992;8.856;2023-05-16T04:58:51;9.60;99.90
31207;DHT22;17834;52.992;8.856;2023-05-16T05:01:17;9.50;99.90
31207;DHT22;17834;52.992;8.856;2023-05-16T05:03:43;9.50;99.90
31207;DHT22;17834;52.992;8.856;2023-05-16T05:06:08;9.50;99.90
31207;DHT22;17834;52.992;8.856;2023-05-16T05:08:34;9.40;99.90
31207;DHT22;17834;52.992;8.856;2023-05-16T05:11:01;9.50;99.90
31207;DHT22;17834;52.992;8.856;2023-05-16T05:13:28;9.90;99.90
31207;DHT22;17834;52.992;8.856;2023-05-16T05:15:54;10.10;99.90
31207;DHT22;17834;52.992;8.856;2023-05-16T05:18:20;10.60;99.90
31207;DHT22;17834;52.992;8.856;2023-05-16T05:20:46;11.50;99.90
31207;DHT22;17834;52.992;8.856;2023-05-16T05:23:11;11.90;99.90
31207;DHT22;17834;52.992;8.856;2023-05-16T05:25:37;12.10;99.90
31207;DHT22;17834;52.992;8.856;2023-05-16T05:28:03;11.80;99.90
31207;DHT22;17834;52.992;8.856;2023-05-16T05:30:29;11.70;99.90
31207;DHT22;17834;52.992;8.856;2023-05-16T05:32:54;11.60;99.90
31207;DHT22;17834;52.992;8.856;2023-05-16T05:35:20;11.50;99.90
31207;DHT22;17834;52.992;8.856;2023-05-16T05:37:46;11.30;99.90
31207;DHT22;17834;52.992;8.856;2023-05-16T05:40:11;11.40;99.90
31207;DHT22;17834;52.992;8.856;2023-05-16T05:42:37;11.70;99.90
31207;DHT22;17834;52.992;8.856;2023-05-16T05:45:03;12.30;99.90
31207;DHT22;17834;52.992;8.856;2023-05-16T05:47:29;13.40;99.90
31207;DHT22;17834;52.992;8.856;2023-05-16T05:49:55;14.60;99.90
31207;DHT22;17834;52.992;8.856;2023-05-16T05:52:21;15.70;99.90
31207;DHT22;17834;52.992;8.856;2023-05-16T05:54:47;16.90;99.50
31207;DHT22;17834;52.992;8.856;2023-05-16T05:57:12;17.60;95.40
31207;DHT22;17834;52.992;8.856;2023-05-16T05:59:38;18.30;93.30
31207;DHT22;17834;52.992;8.856;2023-05-16T06:02:04;18.90;90.20
31207;DHT22;17834;52.992;8.856;2023-05-16T06:04:29;19.40;84.60
31207;DHT22;17834;52.992;8.856;2023-05-16T06:06:55;20.00;80.60
31207;DHT22;17834;52.992;8.856;2023-05-16T06:09:21;20.30;78.00
31207;DHT22;17834;52.992;8.856;2023-05-16T06:11:46;20.20;74.60
31207;DHT22;17834;52.992;8.856;2023-05-16T06:14:13;20.10;74.20
31207;DHT22;17834;52.992;8.856;2023-05-16T06:16:40;20.50;72.30
31207;DHT22;17834;52.992;8.856;2023-05-16T06:19:06;19.60;72.40
31207;DHT22;17834;52.992;8.856;2023-05-16T06:21:32;19.10;73.70
31207;DHT22;17834;52.992;8.856;2023-05-16T06:23:58;18.60;75.60
31207;DHT22;17834;52.992;8.856;2023-05-16T06:26:23;18.00;74.60
31207;DHT22;17834;52.992;8.856;2023-05-16T06:28:49;17.30;78.10
31207;DHT22;17834;52.992;8.856;2023-05-16T06:31:14;16.90;81.30
31207;DHT22;17834;52.992;8.856;2023-05-16T06:33:40;16.20;80.90
31207;DHT22;17834;52.992;8.856;2023-05-16T06:36:06;16.30;82.20
31207;DHT22;17834;52.992;8.856;2023-05-16T06:38:31;15.80;84.00
31207;DHT22;17834;52.992;8.856;2023-05-16T06:40:57;15.40;86.20
31207;DHT22;17834;52.992;8.856;2023-05-16T06:43:22;14.90;87.10
31207;DHT22;17834;52.992;8.856;2023-05-16T06:45:48;14.50;90.30
31207;DHT22;17834;52.992;8.856;2023-05-16T06:48:14;14.00;90.20
31207;DHT22;17834;52.992;8.856;2023-05-16T06:50:40;13.80;91.10
31207;DHT22;17834;52.992;8.856;2023-05-16T06:53:06;13.60;91.80
31207;DHT22;17834;52.992;8.856;2023-05-16T06:55:32;13.40;93.40
31207;DHT22;17834;52.992;8.856;2023-05-16T06:57:58;13.60;94.30
31207;DHT22;17834;52.992;8.856;2023-05-16T07:00:23;13.50;92.80
31207;DHT22;17834;52.992;8.856;2023-05-16T07:02:49;13.60;93.40
31207;DHT22;17834;52.992;8.856;2023-05-16T07:05:15;13.60;93.80
31207;DHT22;17834;52.992;8.856;2023-05-16T07:07:40;13.60;93.10
31207;DHT22;17834;52.992;8.856;2023-05-16T07:10:06;13.60;94.10
31207;DHT22;17834;52.992;8.856;2023-05-16T07:12:32;14.60;93.30
31207;DHT22;17834;52.992;8.856;2023-05-16T07:14:57;16.10;90.20
31207;DHT22;17834;52.992;8.856;2023-05-16T07:17:23;16.20;87.20
31207;DHT22;17834;52.992;8.856;2023-05-16T07:19:49;15.80;87.90
31207;DHT22;17834;52.992;8.856;2023-05-16T07:22:15;16.20;87.20
31207;DHT22;17834;52.992;8.856;2023-05-16T07:24:40;17.00;83.70
31207;DHT22;17834;52.992;8.856;2023-05-16T07:27:06;17.90;80.10
31207;DHT22;17834;52.992;8.856;2023-05-16T07:29:32;19.30;78.60
31207;DHT22;17834;52.992;8.856;2023-05-16T07:31:57;20.00;73.60
31207;DHT22;17834;52.992;8.856;2023-05-16T07:34:23;20.60;70.10
31207;DHT22;17834;52.992;8.856;2023-05-16T07:36:49;21.00;67.60
31207;DHT22;17834;52.992;8.856;2023-05-16T07:39:15;21.40;62.70
31207;DHT22;17834;52.992;8.856;2023-05-16T07:41:40;20.50;63.80
31207;DHT22;17834;52.992;8.856;2023-05-16T07:44:06;20.00;65.30
31207;DHT22;17834;52.992;8.856;2023-05-16T07:46:31;18.90;66.40
31207;DHT22;17834;52.992;8.856;2023-05-16T07:48:57;17.70;69.60
31207;DHT22;17834;52.992;8.856;2023-05-16T07:51:23;16.90;72.70
31207;DHT22;17834;52.992;8.856;2023-05-16T07:53:48;16.20;76.40
31207;DHT22;17834;52.992;8.856;2023-05-16T07:56:14;15.60;77.00
31207;DHT22;17834;52.992;8.856;2023-05-16T07:58:40;15.10;79.20
31207;DHT22;17834;52.992;8.856;2023-05-16T08:01:06;14.50;78.70
31207;DHT22;17834;52.992;8.856;2023-05-16T08:03:31;14.50;80.20
31207;DHT22;17834;52.992;8.856;2023-05-16T08:05:57;14.50;80.70
31207;DHT22;17834;52.992;8.856;2023-05-16T08:08:22;14.40;81.30
31207;DHT22;17834;52.992;8.856;2023-05-16T08:10:48;14.20;82.50
31207;DHT22;17834;52.992;8.856;2023-05-16T08:13:13;14.00;84.10
31207;DHT22;17834;52.992;8.856;2023-05-16T08:15:39;14.00;86.20
31207;DHT22;17834;52.992;8.856;2023-05-16T08:18:12;13.90;88.00
31207;DHT22;17834;52.992;8.856;2023-05-16T08:20:38;14.10;89.00
31207;DHT22;17834;52.992;8.856;2023-05-16T08:23:04;13.90;86.70
31207;DHT22;17834;52.992;8.856;2023-05-16T08:25:30;13.80;88.30
31207;DHT22;17834;52.992;8.856;2023-05-16T08:27:56;13.70;87.70
31207;DHT22;17834;52.992;8.856;2023-05-16T08:30:22;13.60;88.20
31207;DHT22;17834;52.992;8.856;2023-05-16T08:32:47;13.60;88.30
31207;DHT22;17834;52.992;8.856;2023-05-16T08:35:13;13.60;90.20
31207;DHT22;17834;52.992;8.856;2023-05-16T08:37:38;13.90;90.80
31207;DHT22;17834;52.992;8.856;2023-05-16T08:40:09;14.30;89.50
31207;DHT22;17834;52.992;8.856;2023-05-16T08:42:35;14.60;86.40
31207;DHT22;17834;52.992;8.856;2023-05-16T08:45:01;14.50;86.70
31207;DHT22;17834;52.992;8.856;2023-05-16T08:47:29;14.30;88.40
31207;DHT22;17834;52.992;8.856;2023-05-16T08:49:56;13.90;90.00
31207;DHT22;17834;52.992;8.856;2023-05-16T08:52:26;13.70;90.90
31207;DHT22;17834;52.992;8.856;2023-05-16T08:55:00;13.90;91.30
31207;DHT22;17834;52.992;8.856;2023-05-16T08:57:26;14.10;91.50
31207;DHT22;17834;52.992;8.856;2023-05-16T08:59:53;14.40;91.30
31207;DHT22;17834;52.992;8.856;2023-05-16T09:02:21;14.60;89.10
31207;DHT22;17834;52.992;8.856;2023-05-16T09:04:47;14.50;90.10
31207;DHT22;17834;52.992;8.856;2023-05-16T09:07:13;14.30;90.60
31207;DHT22;17834;52.992;8.856;2023-05-16T09:09:40;13.60;93.50
31207;DHT22;17834;52.992;8.856;2023-05-16T09:12:07;13.00;98.20
31207;DHT22;17834;52.992;8.856;2023-05-16T09:14:32;12.50;99.90
31207;DHT22;17834;52.992;8.856;2023-05-16T09:17:07;11.90;99.90
31207;DHT22;17834;52.992;8.856;2023-05-16T09:19:41;11.50;99.90
31207;DHT22;17834;52.992;8.856;2023-05-16T09:22:13;11.40;99.90
31207;DHT22;17834;52.992;8.856;2023-05-16T09:24:43;11.50;99.90
31207;DHT22;17834;52.992;8.856;2023-05-16T09:27:10;11.60;99.90
31207;DHT22;17834;52.992;8.856;2023-05-16T09:29:39;11.90;99.90
31207;DHT22;17834;52.992;8.856;2023-05-16T09:32:23;12.40;99.90
31207;DHT22;17834;52.992;8.856;2023-05-16T09:34:49;12.50;99.90
31207;DHT22;17834;52.992;8.856;2023-05-16T09:37:16;12.70;99.90
31207;DHT22;17834;52.992;8.856;2023-05-16T09:39:47;12.80;99.90
31207;DHT22;17834;52.992;8.856;2023-05-16T09:42:13;12.70;99.90
31207;DHT22;17834;52.992;8.856;2023-05-16T09:44:39;12.60;99.90
31207;DHT22;17834;52.992;8.856;2023-05-16T09:47:05;12.70;99.90
31207;DHT22;17834;52.992;8.856;2023-05-16T09:49:31;13.10;99.90
31207;DHT22;17834;52.992;8.856;2023-05-16T09:52:01;13.50;99.90
31207;DHT22;17834;52.992;8.856;2023-05-16T09:54:33;13.80;99.30
31207;DHT22;17834;52.992;8.856;2023-05-16T09:57:00;13.90;98.60
31207;DHT22;17834;52.992;8.856;2023-05-16T09:59:38;13.90;97.60
31207;DHT22;17834;52.992;8.856;2023-05-16T10:02:05;13.90;97.90
31207;DHT22;17834;52.992;8.856;2023-05-16T10:04:32;13.90;98.00
31207;DHT22;17834;52.992;8.856;2023-05-16T10:07:01;13.80;97.20
31207;DHT22;17834;52.992;8.856;2023-05-16T10:09:29;13.80;96.20
31207;DHT22;17834;52.992;8.856;2023-05-16T10:11:56;13.80;95.80
31207;DHT22;17834;52.992;8.856;2023-05-16T10:14:23;13.90;95.20
31207;DHT22;17834;52.992;8.856;2023-05-16T10:16:50;14.10;95.50
31207;DHT22;17834;52.992;8.856;2023-05-16T10:19:19;14.30;94.60
31207;DHT22;17834;52.992;8.856;2023-05-16T10:21:50;14.20;92.30
31207;DHT22;17834;52.992;8.856;2023-05-16T10:24:23;14.20;93.00
31207;DHT22;17834;52.992;8.856;2023-05-16T10:26:51;13.80;95.10
31207;DHT22;17834;52.992;8.856;2023-05-16T10:29:17;13.50;96.50
31207;DHT22;17834;52.992;8.856;2023-05-16T10:31:43;13.00;99.30
31207;DHT22;17834;52.992;8.856;2023-05-16T10:34:11;12.20;99.90
31207;DHT22;17834;52.992;8.856;2023-05-16T10:36:37;11.70;99.90
31207;DHT22;17834;52.992;8.856;2023-05-16T10:39:04;11.20;99.90
31207;DHT22;17834;52.992;8.856;2023-05-16T10:41:31;10.80;99.90
31207;DHT22;17834;52.992;8.856;2023-05-16T10:43:58;10.70;99.90
31207;DHT22;17834;52.992;8.856;2023-05-16T10:46:25;10.70;99.90
31207;DHT22;17834;52.992;8.856;2023-05-16T10:48:50;10.90;99.90
31207;DHT22;17834;52.992;8.856;2023-05-16T10:53:52;11.30;99.90
31207;DHT22;17834;52.992;8.856;2023-05-16T10:56:22;11.40;99.90
31207;DHT22;17834;52.992;8.856;2023-05-16T10:58:48;11.50;99.90
31207;DHT22;17834;52.992;8.856;2023-05-16T11:01:23;11.60;99.90
31207;DHT22;17834;52.992;8.856;2023-05-16T11:06:30;11.80;99.90
31207;DHT22;17834;52.992;8.856;2023-05-16T11:09:06;12.00;99.90
31207;DHT22;17834;52.992;8.856;2023-05-16T11:11:57;12.40;99.90
31207;DHT22;17834;52.992;8.856;2023-05-16T11:14:25;13.00;99.90
31207;DHT22;17834;52.992;8.856;2023-05-16T11:17:11;12.60;99.90
31207;DHT22;17834;52.992;8.856;2023-05-16T11:19:46;12.30;99.90
31207;DHT22;17834;52.992;8.856;2023-05-16T11:24:56;11.70;99.90
31207;DHT22;17834;52.992;8.856;2023-05-16T11:27:24;11.60;99.90
31207;DHT22;17834;52.992;8.856;2023-05-16T11:29:50;11.70;99.90
31207;DHT22;17834;52.992;8.856;2023-05-16T11:32:19;11.90;99.90
31207;DHT22;17834;52.992;8.856;2023-05-16T11:34:46;12.00;99.90
31207;DHT22;17834;52.992;8.856;2023-05-16T11:37:12;12.20;99.90
31207;DHT22;17834;52.992;8.856;2023-05-16T11:39:39;12.40;99.90
31207;DHT22;17834;52.992;8.856;2023-05-16T11:42:05;12.30;99.90
31207;DHT22;17834;52.992;8.856;2023-05-16T11:44:30;12.20;99.90
31207;DHT22;17834;52.992;8.856;2023-05-16T11:46:56;12.20;99.90
31207;DHT22;17834;52.992;8.856;2023-05-16T11:49:21;12.20;99.90
31207;DHT22;17834;52.992;8.856;2023-05-16T11:51:47;12.40;99.90
31207;DHT22;17834;52.992;8.856;2023-05-16T11:54:14;12.50;99.90
31207;DHT22;17834;52.992;8.856;2023-05-16T11:56:40;12.80;99.90
31207;DHT22;17834;52.992;8.856;2023-05-16T11:59:07;12.90;99.90
31207;DHT22;17834;52.992;8.856;2023-05-16T12:01:34;13.20;99.90
31207;DHT22;17834;52.992;8.856;2023-05-16T12:04:00;13.40;99.90
31207;DHT22;17834;52.992;8.856;2023-05-16T12:06:26;13.50;99.90
31207;DHT22;17834;52.992;8.856;2023-05-16T12:08:53;13.80;99.90
31207;DHT22;17834;52.992;8.856;2023-05-16T12:11:19;14.00;99.90
31207;DHT22;17834;52.992;8.856;2023-05-16T12:13:47;13.30;99.90
31207;DHT22;17834;52.992;8.856;2023-05-16T12:16:12;12.10;99.90
31207;DHT22;17834;52.992;8.856;2023-05-16T12:18:38;10.70;99.90
31207;DHT22;17834;52.992;8.856;2023-05-16T12:21:04;9.70;99.90
31207;DHT22;17834;52.992;8.856;2023-05-16T12:23:32;9.20;99.90
31207;DHT22;17834;52.992;8.856;2023-05-16T12:25:58;8.90;99.90
31207;DHT22;17834;52.992;8.856;2023-05-16T12:28:30;8.90;99.90
31207;DHT22;17834;52.992;8.856;2023-05-16T12:30:57;9.10;99.90
31207;DHT22;17834;52.992;8.856;2023-05-16T12:33:23;9.30;99.90
31207;DHT22;17834;52.992;8.856;2023-05-16T12:35:49;9.40;99.90
31207;DHT22;17834;52.992;8.856;2023-05-16T12:38:18;9.60;99.90
31207;DHT22;17834;52.992;8.856;2023-05-16T12:40:44;9.90;99.90
31207;DHT22;17834;52.992;8.856;2023-05-16T12:43:19;10.10;99.90
31207;DHT22;17834;52.992;8.856;2023-05-16T12:45:55;10.20;99.90
31207;DHT22;17834;52.992;8.856;2023-05-16T12:48:22;10.50;99.90
31207;DHT22;17834;52.992;8.856;2023-05-16T12:50:48;10.60;99.90
31207;DHT22;17834;52.992;8.856;2023-05-16T12:53:15;10.80;99.90
31207;DHT22;17834;52.992;8.856;2023-05-16T12:55:42;11.00;99.90
31207;DHT22;17834;52.992;8.856;2023-05-16T12:58:08;11.30;99.90
31207;DHT22;17834;52.992;8.856;2023-05-16T13:00:34;11.60;99.90
31207;DHT22;17834;52.992;8.856;2023-05-16T13:03:02;11.70;99.90
31207;DHT22;17834;52.992;8.856;2023-05-16T13:05:27;11.50;99.90
31207;DHT22;17834;52.992;8.856;2023-05-16T13:07:53;11.50;99.90
31207;DHT22;17834;52.992;8.856;2023-05-16T13:10:19;11.40;99.90
31207;DHT22;17834;52.992;8.856;2023-05-16T13:12:44;11.30;99.90
31207;DHT22;17834;52.992;8.856;2023-05-16T13:15:11;11.20;99.90
31207;DHT22;17834;52.992;8.856;2023-05-16T13:17:37;11.30;99.90
31207;DHT22;17834;52.992;8.856;2023-05-16T13:20:04;11.40;99.90
31207;DHT22;17834;52.992;8.856;2023-05-16T13:22:34;11.50;99.90
31207;DHT22;17834;52.992;8.856;2023-05-16T13:25:00;11.70;99.90
31207;DHT22;17834;52.992;8.856;2023-05-16T13:27:26;11.90;99.90
31207;DHT22;17834;52.992;8.856;2023-05-16T13:29:51;11.80;99.90
31207;DHT22;17834;52.992;8.856;2023-05-16T13:32:17;11.80;99.90
31207;DHT22;17834;52.992;8.856;2023-05-16T13:34:43;11.80;99.90
31207;DHT22;17834;52.992;8.856;2023-05-16T13:37:09;11.50;99.90
31207;DHT22;17834;52.992;8.856;2023-05-16T13:39:34;11.20;99.90
31207;DHT22;17834;52.992;8.856;2023-05-16T13:42:00;10.90;99.90
31207;DHT22;17834;52.992;8.856;2023-05-16T13:44:28;10.80;99.90
31207;DHT22;17834;52.992;8.856;2023-05-16T13:46:53;10.60;99.90
31207;DHT22;17834;52.992;8.856;2023-05-16T13:49:19;10.60;99.90
31207;DHT22;17834;52.992;8.856;2023-05-16T13:51:45;10.70;99.90
31207;DHT22;17834;52.992;8.856;2023-05-16T13:54:12;10.90;99.90
31207;DHT22;17834;52.992;8.856;2023-05-16T13:56:38;11.20;99.90
31207;DHT22;17834;52.992;8.856;2023-05-16T13:59:03;11.30;99.90
31207;DHT22;17834;52.992;8.856;2023-05-16T14:01:29;11.40;99.90
31207;DHT22;17834;52.992;8.856;2023-05-16T14:03:54;11.40;99.90
31207;DHT22;17834;52.992;8.856;2023-05-16T14:06:20;11.40;99.90
31207;DHT22;17834;52.992;8.856;2023-05-16T14:08:46;11.60;99.90
31207;DHT22;17834;52.992;8.856;2023-05-16T14:11:11;11.70;99.90
31207;DHT22;17834;52.992;8.856;2023-05-16T14:13:37;11.90;99.90
31207;DHT22;17834;52.992;8.856;2023-05-16T14:16:05;12.10;99.90
31207;DHT22;17834;52.992;8.856;2023-05-16T14:18:30;12.30;99.90
31207;DHT22;17834;52.992;8.856;2023-05-16T14:20:56;12.40;99.90
31207;DHT22;17834;52.992;8.856;2023-05-16T14:23:22;12.50;99.90
31207;DHT22;17834;52.992;8.856;2023-05-16T14:25:48;12.60;99.90
31207;DHT22;17834;52.992;8.856;2023-05-16T14:28:13;12.80;99.90
31207;DHT22;17834;52.992;8.856;2023-05-16T14:30:39;12.90;99.90
31207;DHT22;17834;52.992;8.856;2023-05-16T14:33:05;13.20;99.90
31207;DHT22;17834;52.992;8.856;2023-05-16T14:35:31;13.30;99.90
31207;DHT22;17834;52.992;8.856;2023-05-16T14:37:57;13.50;99.90
31207;DHT22;17834;52.992;8.856;2023-05-16T14:40:22;13.60;99.90
31207;DHT22;17834;52.992;8.856;2023-05-16T14:42:48;13.50;99.90
31207;DHT22;17834;52.992;8.856;2023-05-16T14:45:15;13.50;99.90
31207;DHT22;17834;52.992;8.856;2023-05-16T14:47:41;13.60;99.90
31207;DHT22;17834;52.992;8.856;2023-05-16T14:50:07;13.70;99.90
31207;DHT22;17834;52.992;8.856;2023-05-16T14:52:32;13.90;99.90
31207;DHT22;17834;52.992;8.856;2023-05-16T14:54:58;14.10;99.90
31207;DHT22;17834;52.992;8.856;2023-05-16T14:57:24;14.30;99.90
31207;DHT22;17834;52.992;8.856;2023-05-16T14:59:49;14.50;99.90
31207;DHT22;17834;52.992;8.856;2023-05-16T15:02:15;14.50;99.90
31207;DHT22;17834;52.992;8.856;2023-05-16T15:04:41;14.30;99.90
31207;DHT22;17834;52.992;8.856;2023-05-16T15:07:06;14.10;99.90
31207;DHT22;17834;52.992;8.856;2023-05-16T15:09:32;14.00;99.90
31207;DHT22;17834;52.992;8.856;2023-05-16T15:11:57;13.60;99.90
31207;DHT22;17834;52.992;8.856;2023-05-16T15:14:23;13.30;99.90
31207;DHT22;17834;52.992;8.856;2023-05-16T15:16:49;13.30;99.90
31207;DHT22;17834;52.992;8.856;2023-05-16T15:19:15;13.30;99.90
31207;DHT22;17834;52.992;8.856;2023-05-16T15:21:41;13.40;99.90
31207;DHT22;17834;52.992;8.856;2023-05-16T15:24:06;13.40;99.90
31207;DHT22;17834;52.992;8.856;2023-05-16T15:26:32;13.50;99.90
31207;DHT22;17834;52.992;8.856;2023-05-16T15:28:58;13.60;99.90
31207;DHT22;17834;52.992;8.856;2023-05-16T15:31:23;13.60;99.90
31207;DHT22;17834;52.992;8.856;2023-05-16T15:33:49;13.60;98.60
31207;DHT22;17834;52.992;8.856;2023-05-16T15:36:15;13.50;98.80
31207;DHT22;17834;52.992;8.856;2023-05-16T15:38:40;13.50;98.40
31207;DHT22;17834;52.992;8.856;2023-05-16T15:41:09;13.50;98.60
31207;DHT22;17834;52.992;8.856;2023-05-16T15:43:35;13.40;99.00
31207;DHT22;17834;52.992;8.856;2023-05-16T15:46:01;13.40;98.90
31207;DHT22;17834;52.992;8.856;2023-05-16T15:48:26;13.30;99.80
31207;DHT22;17834;52.992;8.856;2023-05-16T15:50:52;13.10;99.90
31207;DHT22;17834;52.992;8.856;2023-05-16T15:53:17;13.10;99.90